Terminal Aerodrome Forecast
Issued by NWS Riverton, WY

Home | Current Version | Previous Version | Text Only | Print | Product List | Glossary On
Versions: 1 2 3 4 5 6 7 8 9 10 11 12 13 14 15 16 17
000
FTUS45 KRIW 180500
TAFRIW
TAF
KRIW 180535Z 1806/1906 VRB06KT P6SM SCT080
     FM181600 35015G23KT P6SM SCT070
     FM182000 01020G28KT P6SM VCSH BKN060
     FM190400 35010KT P6SM VCSH SCT030 OVC050=

USA.gov is the U.S. government's official web portal to all federal, state and local government web resources and services.